Springfield, IL (62764)

7:04 AM CDT on August 27, 2014 (GMT -0500)
Downtown SPI (near South) | Change Station
CLOSE
Current Station
Personal Weather Station
Location: Springfield, IL
Elevation: 600 ft
Nearby Weather Stations

Elev 600 ft 39.78 °N, 89.66 °W | Updated 9 minutes ago

Clear
Clear
71.7 °F
Feels Like 71.7 °F
N
0.0
Wind Variable Wind from WNW
Gusts 0.0 mph

Today
High -- | Low -- °F
--% Chance of Precip.
Yesterday
High -- | Low -- °F
Precip. -- in
6:21 AM 7:37 PM
Waxing Crescent, 3% visible
Pressure 30.07 in
Visibility 10.0 miles
Clouds Clear
Dew Point 68 °F
Humidity 88%
Rainfall 0.00 in
Snow Depth Not available.
UV 0 out of 12
Pollen 9.30 out of 12
Ozone Good
PM2.5 Good
Flu Activity Not available.
METAR KSPI 271052Z 13003KT 10SM CLR 21/19 A3008 RMK AO2 SLP182 T02110189

More Conditions Fewer Conditions

Pressure 30.07 in
Visibility 10.0 miles
Clouds Clear
Dew Point 68 °F
Humidity 88%
Rainfall 0.00 in
Snow Depth Not available.
UV 0 out of 12
Pollen 9.30 out of 12
Ozone Good
PM2.5 Good
Flu Activity Not available.
METAR KSPI 271052Z 13003KT 10SM CLR 21/19 A3008 RMK AO2 SLP182 T02110189

More Conditions Fewer Conditions

10-Day Weather Forecast

Almanac

Astronomy

Aug. 27, 2014 Rise Set
Actual Time 6:21 AM CDT 7:37 PM CDT
Civil Twilight 5:53 AM CDT 8:05 PM CDT
Nautical Twilight 5:20 AM CDT 8:38 PM CDT
Astronomical Twilight 4:45 AM CDT 9:13 PM CDT
Moon 8:17 AM CDT 8:30 PM CDT
Length of Visible Light 14h 11m
Length of Day
13h 15m
Tomorrow will be 2m 28s shorter.
Waxing Crescent, 3% of the Moon is Illuminated
Today
Waxing Crescent
Sep 2
First Quarter
Sep 8
Full
Sep 15
Last Quarter
Sep 24
New

Today's Extremes

State Highs State Lows

Community

WunderPhotos

Upload Photos

1,747,673 photos uploaded!

Nearby

Air Quality

  Air Quality AQ Index Pollutant
Yesterday Moderate
PM2.5
Yesterday Good
OZONE
Current Good
OZONE
Current Good
PM2.5
Wednesday Moderate
PM2.5

Snow Depth

Station Depth Elevation
No new snow has been reported.

Earthquake Activity

City Distance Mag. Time & Date
No recent earthquake activity has been reported nearby.
Minimum magnitude displayed is 2.5.

Coastal Water Temperatures

Place Temperature
No Stations Reporting

Nearby Weather Stations